Time;durP1;ratioP1;P1;durP2;ratioP2;P2;SDS_P1;SDS_P2;PMS_P1;PMS_P2;Temp;Humidity;BMP_temperature;BMP_pressure;BME280_temperature;BME280_humidity;BME280_pressure;Samples;Min_cycle;Max_cycle;Signal;HPM_P1;HPM_P2
2023/04/18 00:00:03;;;;;;;19.07;12.80;;;6.30;99.90;;;;;;5044888;28;20183;-41
2023/04/18 00:02:39;;;;;;;19.40;13.20;;;6.30;99.90;;;;;;5050708;28;20278;-45
2023/04/18 00:05:07;;;;;;;19.07;13.60;;;6.40;99.90;;;;;;5057442;28;20666;-41
2023/04/18 00:07:35;;;;;;;21.00;14.07;;;6.40;99.90;;;;;;5051560;28;20218;-48
2023/04/18 00:10:02;;;;;;;25.00;13.83;;;6.30;99.90;;;;;;5051660;28;20254;-43
2023/04/18 00:12:50;;;;;;;21.13;14.10;;;6.40;99.90;;;;;;5023250;28;20214;-41
2023/04/18 00:15:19;;;;;;;22.47;14.03;;;6.40;99.90;;;;;;5054769;28;20261;-43
2023/04/18 00:17:47;;;;;;;21.87;13.67;;;6.40;99.90;;;;;;5045434;28;20234;-42
2023/04/18 00:20:13;;;;;;;23.67;15.03;;;6.40;99.90;;;;;;5053041;28;20686;-45
2023/04/18 00:22:42;;;;;;;23.83;15.40;;;6.40;99.90;;;;;;5035400;28;20743;-45
2023/04/18 00:25:11;;;;;;;26.87;14.23;;;6.40;99.90;;;;;;5036814;28;20199;-44
2023/04/18 00:27:38;;;;;;;20.47;14.80;;;6.40;99.90;;;;;;5027985;28;20233;-44
2023/04/18 00:30:07;;;;;;;23.07;15.30;;;6.40;99.90;;;;;;5051258;28;20231;-44
2023/04/18 00:32:38;;;;;;;21.70;15.73;;;6.40;99.90;;;;;;5045257;28;20203;-43
2023/04/18 00:35:06;;;;;;;27.07;15.87;;;6.40;99.90;;;;;;5054928;28;20747;-41
2023/04/18 00:37:33;;;;;;;25.30;15.53;;;6.40;99.90;;;;;;5044467;28;20222;-43
2023/04/18 00:40:00;;;;;;;23.63;16.83;;;6.40;99.90;;;;;;5031833;28;20891;-40
2023/04/18 00:42:28;;;;;;;25.50;15.50;;;6.40;99.90;;;;;;5043521;28;20198;-43
2023/04/18 00:44:54;;;;;;;26.30;17.33;;;6.30;99.90;;;;;;5038499;28;20286;-41
2023/04/18 00:47:22;;;;;;;24.17;16.43;;;6.30;99.90;;;;;;5047488;28;20222;-40
2023/04/18 00:49:50;;;;;;;26.53;15.87;;;6.30;99.90;;;;;;5041265;28;20191;-41
2023/04/18 00:52:18;;;;;;;25.20;16.40;;;6.20;99.90;;;;;;5051764;28;20203;-42
2023/04/18 00:54:46;;;;;;;25.57;16.40;;;6.20;99.90;;;;;;5030350;28;20264;-40
2023/04/18 00:57:13;;;;;;;28.13;17.50;;;6.20;99.90;;;;;;5058744;28;20206;-42
2023/04/18 00:59:41;;;;;;;24.17;16.87;;;6.10;99.90;;;;;;5035935;28;20677;-41
2023/04/18 01:02:08;;;;;;;24.63;17.50;;;6.10;99.90;;;;;;5049656;28;20199;-44
2023/04/18 01:04:36;;;;;;;27.23;16.57;;;6.10;99.90;;;;;;5046440;28;20709;-46
2023/04/18 01:07:04;;;;;;;26.63;17.20;;;6.00;99.90;;;;;;5047442;28;20223;-42
2023/04/18 01:09:32;;;;;;;26.63;16.47;;;6.00;99.90;;;;;;5048250;28;20245;-44
2023/04/18 01:11:59;;;;;;;29.57;17.47;;;5.90;99.90;;;;;;5043859;28;20214;-41
2023/04/18 01:14:26;;;;;;;24.20;15.70;;;5.90;99.90;;;;;;5035304;28;20214;-46
2023/04/18 01:16:53;;;;;;;26.53;17.87;;;5.90;99.90;;;;;;5047397;28;20187;-46
2023/04/18 01:19:20;;;;;;;22.97;15.67;;;5.80;99.90;;;;;;5054472;28;20903;-42
2023/04/18 01:21:47;;;;;;;24.97;16.53;;;5.80;99.90;;;;;;5038509;28;20218;-40
2023/04/18 01:24:17;;;;;;;24.50;16.50;;;5.80;99.90;;;;;;5048859;28;20261;-41
2023/04/18 01:26:46;;;;;;;21.47;16.10;;;5.80;99.90;;;;;;5033371;28;20847;-42
2023/04/18 01:29:14;;;;;;;25.93;17.07;;;5.70;99.90;;;;;;5035116;28;20202;-45
2023/04/18 01:31:41;;;;;;;22.87;15.97;;;5.70;99.90;;;;;;5055804;28;20219;-42
2023/04/18 01:34:08;;;;;;;28.87;16.43;;;5.70;99.90;;;;;;5038515;28;20885;-47
2023/04/18 01:36:37;;;;;;;25.93;16.33;;;5.70;99.90;;;;;;5044737;28;20550;-46
2023/04/18 01:39:05;;;;;;;22.80;15.20;;;5.60;99.90;;;;;;5060426;28;20209;-43
2023/04/18 01:41:33;;;;;;;20.80;15.60;;;5.60;99.90;;;;;;5044535;28;20195;-45
2023/04/18 01:44:01;;;;;;;23.90;16.00;;;5.60;99.90;;;;;;5055837;28;20867;-42
2023/04/18 01:46:28;;;;;;;23.07;15.47;;;5.60;99.90;;;;;;5030767;28;20226;-43
2023/04/18 01:48:55;;;;;;;25.87;15.57;;;5.60;99.90;;;;;;5037303;28;20323;-39
2023/04/18 01:51:23;;;;;;;24.50;15.57;;;5.30;99.90;;;;;;5044386;28;20210;-47
2023/04/18 01:53:50;;;;;;;23.90;14.97;;;5.40;99.90;;;;;;5042634;28;20206;-43
2023/04/18 01:56:17;;;;;;;23.10;15.00;;;5.60;99.90;;;;;;5050339;28;20252;-45
2023/04/18 01:58:45;;;;;;;24.90;15.70;;;5.50;99.90;;;;;;5047091;28;20247;-42
2023/04/18 02:01:13;;;;;;;23.97;15.10;;;5.50;99.90;;;;;;5031374;28;20676;-47
2023/04/18 02:03:39;;;;;;;21.90;15.03;;;5.30;99.90;;;;;;5043003;28;20674;-44
2023/04/18 02:06:07;;;;;;;23.63;14.90;;;5.30;99.90;;;;;;5061500;28;20201;-44
2023/04/18 02:08:34;;;;;;;23.07;15.00;;;5.50;99.90;;;;;;5049669;28;20230;-46
2023/04/18 02:11:04;;;;;;;21.93;15.47;;;5.40;99.90;;;;;;5060725;28;20219;-44
2023/04/18 02:13:32;;;;;;;22.53;14.40;;;5.20;99.90;;;;;;5042947;28;20202;-46
2023/04/18 02:16:00;;;;;;;22.63;13.77;;;5.20;99.90;;;;;;5029433;28;20287;-43
2023/04/18 02:18:27;;;;;;;19.43;13.20;;;5.10;99.90;;;;;;5050348;28;20298;-45
2023/04/18 02:20:56;;;;;;;22.83;14.60;;;5.10;99.90;;;;;;5035090;23;20216;-84
2023/04/18 02:23:25;;;;;;;24.33;13.80;;;5.20;99.90;;;;;;5039813;28;20480;-87
2023/04/18 02:25:52;;;;;;;21.57;14.03;;;5.20;99.90;;;;;;5027631;28;20569;-87
2023/04/18 02:28:19;;;;;;;20.57;13.60;;;5.20;99.90;;;;;;5022127;28;20216;-86
2023/04/18 02:30:46;;;;;;;20.90;14.53;;;5.10;99.90;;;;;;5018530;28;20670;-86
2023/04/18 02:33:15;;;;;;;23.77;14.00;;;5.10;99.90;;;;;;5006805;28;20277;-90
2023/04/18 02:35:42;;;;;;;20.20;13.00;;;5.10;99.90;;;;;;5039479;28;20284;-89
2023/04/18 02:38:09;;;;;;;21.70;13.60;;;4.90;99.90;;;;;;5039566;28;20219;-87
2023/04/18 02:40:42;;;;;;;20.53;14.73;;;5.00;99.90;;;;;;5036509;28;20235;-86
2023/04/18 02:43:10;;;;;;;22.60;14.70;;;4.90;99.90;;;;;;5028189;28;20204;-86
2023/04/18 02:45:37;;;;;;;22.60;13.17;;;4.90;99.90;;;;;;5013781;28;20319;-88
2023/04/18 02:48:04;;;;;;;22.67;13.83;;;4.90;99.90;;;;;;5025431;28;20311;-85
2023/04/18 02:50:35;;;;;;;19.53;14.13;;;5.00;99.90;;;;;;5037301;28;20554;-87
2023/04/18 02:53:02;;;;;;;23.40;13.80;;;4.90;99.90;;;;;;5034378;28;20200;-85
2023/04/18 02:55:45;;;;;;;19.37;13.57;;;4.80;99.90;;;;;;5033263;28;20214;-89
2023/04/18 02:58:13;;;;;;;19.87;13.27;;;4.80;99.90;;;;;;5003308;28;20875;-91
2023/04/18 03:01:07;;;;;;;20.80;13.83;;;4.70;99.90;;;;;;4991053;28;20200;-86
2023/04/18 03:03:49;;;;;;;17.03;12.33;;;4.80;99.90;;;;;;5022054;28;20208;-89
2023/04/18 03:06:28;;;;;;;19.60;14.00;;;4.00;99.90;;;;;;5016412;28;20297;-89
2023/04/18 03:08:55;;;;;;;19.60;12.87;;;4.60;99.90;;;;;;5030936;28;20319;-86
2023/04/18 03:11:24;;;;;;;20.93;13.03;;;4.60;99.90;;;;;;5012028;28;20269;-88
2023/04/18 03:13:53;;;;;;;20.87;12.93;;;4.60;99.90;;;;;;5019279;28;20674;-87
2023/04/18 03:16:23;;;;;;;22.10;14.00;;;4.60;99.90;;;;;;4999422;28;20811;-87
2023/04/18 03:18:50;;;;;;;20.43;12.27;;;4.60;99.90;;;;;;5022221;28;20236;-89
2023/04/18 03:21:20;;;;;;;18.90;12.63;;;4.60;99.90;;;;;;5000969;28;20539;-88
2023/04/18 03:23:49;;;;;;;20.20;13.60;;;4.60;99.90;;;;;;5039858;28;20282;-88
2023/04/18 03:26:16;;;;;;;23.10;12.37;;;4.60;99.90;;;;;;4998014;28;20216;-88
2023/04/18 03:28:45;;;;;;;18.57;12.43;;;4.60;99.90;;;;;;5014364;28;20224;-88
2023/04/18 03:31:12;;;;;;;16.47;12.03;;;4.60;99.90;;;;;;5008710;28;20224;-89
2023/04/18 03:33:44;;;;;;;17.10;11.90;;;4.60;99.90;;;;;;5031711;28;20217;-89
2023/04/18 03:36:13;;;;;;;19.43;12.43;;;4.60;99.90;;;;;;5032306;28;20210;-85
2023/04/18 03:38:41;;;;;;;16.83;12.67;;;4.60;99.90;;;;;;5007120;28;20687;-88
2023/04/18 03:41:10;;;;;;;17.90;12.53;;;4.60;99.90;;;;;;4993549;28;20200;-85
2023/04/18 03:43:39;;;;;;;17.43;12.53;;;4.60;99.90;;;;;;5028080;28;20196;-88
2023/04/18 03:46:06;;;;;;;18.00;12.27;;;4.60;99.90;;;;;;5035353;28;20206;-86
2023/04/18 03:48:35;;;;;;;19.87;12.63;;;4.60;99.90;;;;;;5031736;28;20227;-90
2023/04/18 03:51:10;;;;;;;19.90;11.33;;;4.60;99.90;;;;;;5006363;28;20199;-86
2023/04/18 03:53:41;;;;;;;16.70;12.23;;;4.60;99.90;;;;;;5023695;28;20287;-87
2023/04/18 03:56:09;;;;;;;17.87;12.63;;;4.60;99.90;;;;;;5020573;28;20247;-85
2023/04/18 03:58:46;;;;;;;19.27;12.10;;;4.60;99.90;;;;;;5020051;28;20239;-87
2023/04/18 04:01:14;;;;;;;16.67;10.67;;;4.60;99.90;;;;;;5022881;28;20461;-89
2023/04/18 04:03:41;;;;;;;17.10;12.93;;;4.60;99.90;;;;;;5017167;28;20208;-86
2023/04/18 04:06:09;;;;;;;17.20;11.97;;;4.60;99.90;;;;;;5018354;28;20678;-85
2023/04/18 04:08:36;;;;;;;16.40;11.70;;;4.60;99.90;;;;;;5033585;28;20314;-88
2023/04/18 04:11:03;;;;;;;16.00;11.33;;;4.60;99.90;;;;;;5013277;28;20203;-86
2023/04/18 04:13:31;;;;;;;14.73;11.27;;;4.50;99.90;;;;;;5020812;28;20214;-86
2023/04/18 04:15:58;;;;;;;14.43;10.73;;;4.60;99.90;;;;;;5021519;28;20243;-88
2023/04/18 04:18:30;;;;;;;14.43;11.17;;;4.50;99.90;;;;;;5010236;28;20721;-86
2023/04/18 04:21:00;;;;;;;17.47;10.50;;;4.50;99.90;;;;;;5002708;28;20739;-88
2023/04/18 04:23:48;;;;;;;17.13;11.20;;;4.50;99.90;;;;;;5026251;28;20302;-89
2023/04/18 04:26:36;;;;;;;15.50;11.33;;;4.50;99.90;;;;;;5025694;28;20565;-86
2023/04/18 04:29:27;;;;;;;16.83;10.97;;;4.50;99.90;;;;;;5009032;28;20331;-89
2023/04/18 04:31:55;;;;;;;16.00;11.27;;;4.50;99.90;;;;;;5024742;28;20405;-85
2023/04/18 04:34:33;;;;;;;16.20;10.53;;;4.50;99.90;;;;;;4996740;28;20204;-84
2023/04/18 04:37:02;;;;;;;15.70;10.57;;;4.50;99.90;;;;;;5038100;28;20199;-86
2023/04/18 04:39:32;;;;;;;14.90;10.57;;;4.50;99.90;;;;;;5006173;28;20244;-86
2023/04/18 04:42:34;;;;;;;16.00;11.10;;;4.50;99.90;;;;;;5009690;28;20196;-86
2023/04/18 04:45:11;;;;;;;20.40;9.90;;;4.50;99.90;;;;;;5011488;28;20211;-86
2023/04/18 04:47:38;;;;;;;14.93;9.93;;;4.50;99.90;;;;;;5001736;28;20246;-88
2023/04/18 04:50:12;;;;;;;17.80;10.87;;;4.50;99.90;;;;;;5006431;28;20204;-89
2023/04/18 04:52:40;;;;;;;17.03;11.10;;;4.50;99.90;;;;;;5007500;28;20803;-89
2023/04/18 04:55:08;;;;;;;15.97;10.43;;;4.60;99.90;;;;;;5027815;28;20564;-89
2023/04/18 04:57:35;;;;;;;14.83;11.07;;;4.60;99.90;;;;;;5025366;28;20258;-86
2023/04/18 05:00:19;;;;;;;15.87;11.13;;;4.60;99.90;;;;;;4990822;28;20266;-88
2023/04/18 05:02:47;;;;;;;17.97;10.90;;;4.60;99.90;;;;;;5017709;28;20230;-87
2023/04/18 05:05:17;;;;;;;17.50;11.10;;;4.60;99.90;;;;;;5017818;28;20262;-88
2023/04/18 05:07:45;;;;;;;14.10;10.13;;;4.60;99.90;;;;;;5024778;28;20230;-92
2023/04/18 05:10:13;;;;;;;16.00;10.63;;;4.70;99.90;;;;;;5008577;28;20633;-88
2023/04/18 05:12:43;;;;;;;15.73;10.50;;;4.80;99.90;;;;;;5020431;28;20517;-87
2023/04/18 05:15:10;;;;;;;14.63;9.90;;;4.80;99.90;;;;;;5022468;28;20208;-87
2023/04/18 05:17:42;;;;;;;15.23;10.60;;;4.80;99.90;;;;;;5032779;28;20705;-93
2023/04/18 05:20:10;;;;;;;17.40;10.20;;;4.80;99.90;;;;;;5017470;28;20206;-87
2023/04/18 05:22:37;;;;;;;13.93;9.87;;;4.90;99.90;;;;;;5034490;28;20211;-88
2023/04/18 05:25:05;;;;;;;14.70;9.73;;;4.90;99.90;;;;;;5016379;28;20200;-86
2023/04/18 05:27:33;;;;;;;12.97;9.93;;;5.00;99.90;;;;;;5008314;28;20200;-86
2023/04/18 05:30:22;;;;;;;11.30;8.60;;;5.00;99.90;;;;;;5030397;28;20199;-85
2023/04/18 05:32:51;;;;;;;14.77;9.93;;;5.10;99.90;;;;;;5028635;28;20708;-87
2023/04/18 05:35:18;;;;;;;15.33;9.63;;;5.10;99.90;;;;;;5007766;28;20216;-85
2023/04/18 05:37:46;;;;;;;14.00;9.27;;;5.20;99.90;;;;;;5014699;28;20227;-91
2023/04/18 05:40:13;;;;;;;14.87;9.57;;;5.20;99.90;;;;;;5041474;28;20224;-89
2023/04/18 05:43:03;;;;;;;15.27;9.30;;;5.30;99.90;;;;;;5020483;28;20215;-88
2023/04/18 05:45:30;;;;;;;13.33;9.40;;;5.40;99.90;;;;;;5027131;28;20203;-85
2023/04/18 05:47:59;;;;;;;19.57;9.33;;;5.40;99.90;;;;;;5008779;28;20706;-89
2023/04/18 05:50:26;;;;;;;17.50;9.23;;;5.50;99.90;;;;;;5015991;28;20295;-86
2023/04/18 05:52:53;;;;;;;13.77;8.97;;;5.60;99.90;;;;;;5002054;28;20337;-88
2023/04/18 05:55:21;;;;;;;14.20;8.40;;;5.70;99.90;;;;;;5007258;28;20196;-86
2023/04/18 05:57:48;;;;;;;15.43;8.73;;;5.70;99.90;;;;;;4994777;28;20228;-85
2023/04/18 06:00:17;;;;;;;11.40;8.30;;;5.80;99.90;;;;;;5002504;28;20276;-88
2023/04/18 06:02:45;;;;;;;15.03;8.33;;;5.90;99.90;;;;;;5024394;28;20740;-87
2023/04/18 06:05:14;;;;;;;12.03;8.77;;;6.00;99.90;;;;;;5025368;28;20633;-87
2023/04/18 06:07:41;;;;;;;13.07;7.60;;;6.00;99.90;;;;;;5029246;28;20304;-88
2023/04/18 06:10:12;;;;;;;12.90;8.23;;;6.10;99.90;;;;;;4997983;28;20833;-84
2023/04/18 06:12:41;;;;;;;15.97;8.20;;;6.20;99.90;;;;;;5021770;28;20227;-87
2023/04/18 06:15:11;;;;;;;10.20;6.90;;;6.20;99.90;;;;;;5025093;28;20688;-87
2023/04/18 06:17:50;;;;;;;15.40;8.37;;;6.20;99.90;;;;;;5022672;28;20274;-87
2023/04/18 06:20:22;;;;;;;12.83;8.40;;;6.40;99.90;;;;;;5029736;28;20955;-90
2023/04/18 06:22:57;;;;;;;13.73;7.97;;;6.50;99.90;;;;;;5027905;28;20218;-86
2023/04/18 06:25:48;;;;;;;11.90;7.70;;;6.50;99.90;;;;;;5007372;28;20216;-86
2023/04/18 06:28:16;;;;;;;13.87;7.93;;;6.60;99.90;;;;;;5019469;28;20215;-87
2023/04/18 06:30:42;;;;;;;10.73;7.13;;;6.70;99.90;;;;;;5009763;28;20200;-88
2023/04/18 06:33:13;;;;;;;11.43;7.33;;;6.80;99.90;;;;;;5014108;28;20215;-87
2023/04/18 06:35:45;;;;;;;10.93;7.60;;;6.80;99.90;;;;;;5015758;28;20203;-87
2023/04/18 06:38:13;;;;;;;12.73;7.20;;;6.90;99.90;;;;;;5017146;28;21298;-87
2023/04/18 06:40:40;;;;;;;10.20;7.33;;;7.00;99.90;;;;;;5020889;28;20294;-85
2023/04/18 06:43:07;;;;;;;10.80;7.20;;;7.00;99.90;;;;;;5010667;28;20473;-86
2023/04/18 06:45:35;;;;;;;9.03;7.23;;;7.00;99.90;;;;;;5035293;28;20230;-84
2023/04/18 06:48:03;;;;;;;13.97;7.60;;;7.10;99.90;;;;;;5013470;28;20227;-88
2023/04/18 06:50:30;;;;;;;11.00;7.20;;;7.10;99.90;;;;;;5010601;28;20224;-86
2023/04/18 06:53:01;;;;;;;12.10;7.40;;;7.20;99.90;;;;;;4997875;28;20955;-88
2023/04/18 06:55:30;;;;;;;15.43;7.63;;;7.30;99.90;;;;;;5021655;28;20664;-85
2023/04/18 06:57:59;;;;;;;12.80;7.67;;;7.30;99.90;;;;;;5009854;28;20589;-89
2023/04/18 07:00:25;;;;;;;10.43;7.80;;;7.40;99.90;;;;;;5011942;28;20683;-84
2023/04/18 07:02:53;;;;;;;13.57;7.53;;;7.40;99.90;;;;;;5017827;28;20605;-87
2023/04/18 07:05:20;;;;;;;11.93;7.37;;;7.50;99.90;;;;;;5028011;28;20476;-86
2023/04/18 07:07:47;;;;;;;14.57;7.60;;;7.60;99.90;;;;;;5001511;28;20231;-88
2023/04/18 07:10:18;;;;;;;12.40;7.70;;;7.70;99.90;;;;;;5019920;28;20376;-85
2023/04/18 07:12:46;;;;;;;9.97;7.20;;;7.80;99.90;;;;;;5010714;28;20209;-89
2023/04/18 07:15:13;;;;;;;9.57;7.13;;;7.90;99.90;;;;;;5001762;28;20434;-84
2023/04/18 07:17:40;;;;;;;11.80;6.30;;;8.00;99.90;;;;;;5028702;28;20287;-86
2023/04/18 07:20:09;;;;;;;13.73;7.17;;;8.10;99.90;;;;;;5025225;28;20715;-84
2023/04/18 07:22:39;;;;;;;11.63;7.03;;;8.20;99.90;;;;;;5011147;28;20676;-84
2023/04/18 07:25:09;;;;;;;8.10;6.03;;;8.30;99.90;;;;;;5010764;28;20219;-84
2023/04/18 07:27:37;;;;;;;8.47;6.50;;;8.30;99.90;;;;;;5026179;28;20676;-83
2023/04/18 07:30:05;;;;;;;13.43;7.03;;;8.40;99.90;;;;;;5018218;28;20230;-87
2023/04/18 07:32:32;;;;;;;9.43;6.57;;;8.40;99.90;;;;;;5002256;28;20245;-86
2023/04/18 07:34:59;;;;;;;7.47;6.37;;;8.40;99.90;;;;;;5014636;28;20201;-85
2023/04/18 07:37:26;;;;;;;9.33;6.10;;;8.50;99.90;;;;;;5011730;28;20232;-85
2023/04/18 07:39:53;;;;;;;8.87;6.60;;;8.60;99.90;;;;;;5004400;28;20196;-88
2023/04/18 07:42:20;;;;;;;12.20;6.73;;;8.60;99.90;;;;;;4997609;28;20278;-85
2023/04/18 07:44:49;;;;;;;7.97;6.63;;;8.70;99.90;;;;;;5020728;28;20205;-89
2023/04/18 07:47:16;;;;;;;9.20;7.07;;;8.80;99.90;;;;;;5025865;28;20318;-85
2023/04/18 07:49:44;;;;;;;8.07;6.30;;;9.00;99.90;;;;;;5029346;28;20231;-85
2023/04/18 07:52:11;;;;;;;11.93;6.27;;;9.10;99.90;;;;;;5027277;28;20771;-84
2023/04/18 07:54:38;;;;;;;8.60;6.40;;;9.20;99.90;;;;;;5023265;28;20232;-86
2023/04/18 07:57:06;;;;;;;9.90;6.90;;;9.20;99.90;;;;;;5009993;28;20973;-86
2023/04/18 07:59:33;;;;;;;9.73;6.80;;;9.30;99.90;;;;;;5029053;28;20224;-85
2023/04/18 08:02:01;;;;;;;8.27;6.43;;;9.40;99.90;;;;;;5002753;28;20196;-88
2023/04/18 08:04:29;;;;;;;7.17;6.43;;;9.40;99.90;;;;;;5026552;28;20208;-83
2023/04/18 08:06:56;;;;;;;9.20;6.67;;;9.50;99.90;;;;;;5031447;28;20702;-85
2023/04/18 08:09:24;;;;;;;11.07;7.63;;;9.50;99.90;;;;;;5040186;28;20437;-85
2023/04/18 08:11:53;;;;;;;11.60;6.73;;;9.50;99.90;;;;;;5012436;28;20708;-87
2023/04/18 08:14:20;;;;;;;10.40;7.53;;;9.60;99.90;;;;;;5012176;28;20204;-86
2023/04/18 08:16:49;;;;;;;10.60;8.03;;;9.70;99.90;;;;;;5009630;28;20199;-87
2023/04/18 08:19:17;;;;;;;10.60;7.20;;;;;;;;;;5034414;28;20243;-85
2023/04/18 08:21:45;;;;;;;9.77;7.27;;;9.70;99.90;;;;;;5024360;28;20195;-85
2023/04/18 08:24:12;;;;;;;10.50;7.60;;;9.90;99.90;;;;;;5013904;28;20294;-85
2023/04/18 08:26:39;;;;;;;9.57;7.93;;;10.10;99.90;;;;;;5018735;28;20232;-85
2023/04/18 08:29:07;;;;;;;12.47;7.93;;;10.20;99.90;;;;;;4998986;28;20254;-86
2023/04/18 08:31:34;;;;;;;9.40;7.57;;;10.20;99.90;;;;;;5021615;28;20191;-85
2023/04/18 08:34:01;;;;;;;11.00;6.67;;;10.30;99.90;;;;;;5026147;28;20199;-88
2023/04/18 08:36:30;;;;;;;13.90;8.23;;;10.40;99.90;;;;;;5013827;28;20569;-85
2023/04/18 08:38:57;;;;;;;10.30;7.83;;;10.40;99.90;;;;;;5016981;28;20631;-87
2023/04/18 08:41:26;;;;;;;11.10;7.90;;;10.40;99.90;;;;;;4997979;28;20232;-85
2023/04/18 08:43:52;;;;;;;12.27;7.93;;;10.40;99.90;;;;;;5018320;28;20235;-87
2023/04/18 08:46:21;;;;;;;10.63;7.40;;;10.30;99.90;;;;;;4995363;28;20406;-84
2023/04/18 08:48:50;;;;;;;13.57;7.67;;;10.30;99.90;;;;;;5028261;28;20226;-87
2023/04/18 08:51:17;;;;;;;9.67;6.80;;;10.30;99.90;;;;;;5011711;28;20310;-85
2023/04/18 08:53:47;;;;;;;13.10;7.70;;;10.30;99.90;;;;;;5025603;28;20206;-84
2023/04/18 08:56:15;;;;;;;11.23;8.03;;;10.40;99.90;;;;;;5005459;28;20208;-86
2023/04/18 08:59:04;;;;;;;12.27;7.73;;;10.60;99.90;;;;;;5019319;28;20350;-87
2023/04/18 09:01:56;;;;;;;10.07;7.57;;;10.60;99.90;;;;;;5001382;28;20584;-84
2023/04/18 09:04:33;;;;;;;11.07;7.50;;;10.60;99.90;;;;;;5017178;28;20241;-85
2023/04/18 09:07:01;;;;;;;15.00;8.50;;;10.60;99.90;;;;;;5002714;28;20243;-87
2023/04/18 09:09:42;;;;;;;10.60;7.90;;;10.60;99.90;;;;;;4997761;28;20209;-85
2023/04/18 09:12:13;;;;;;;11.77;8.20;;;10.50;99.90;;;;;;4993954;28;23675;-85
2023/04/18 09:14:44;;;;;;;10.13;7.37;;;10.50;99.90;;;;;;5011244;28;20283;-86
2023/04/18 09:17:15;;;;;;;11.20;7.60;;;10.60;99.90;;;;;;4985568;28;20430;-85
2023/04/18 09:19:49;;;;;;;9.97;6.90;;;10.70;99.90;;;;;;5040447;28;20224;-85
2023/04/18 09:22:17;;;;;;;9.63;8.10;;;10.60;99.90;;;;;;5014826;28;20975;-85
2023/04/18 09:24:51;;;;;;;9.20;7.23;;;10.70;99.90;;;;;;5014679;28;20195;-86
2023/04/18 09:27:21;;;;;;;8.93;7.43;;;10.70;99.90;;;;;;5017803;28;20363;-85
2023/04/18 09:29:51;;;;;;;7.50;6.70;;;10.70;99.90;;;;;;5013351;28;20214;-88
2023/04/18 09:32:23;;;;;;;10.40;7.33;;;10.70;99.90;;;;;;4995552;28;20369;-86
2023/04/18 09:34:53;;;;;;;9.73;7.20;;;10.60;99.90;;;;;;5026879;28;20544;-88
2023/04/18 09:37:21;;;;;;;13.23;8.10;;;10.50;99.90;;;;;;5012072;28;20220;-86
2023/04/18 09:40:18;;;;;;;9.87;7.23;;;10.50;99.90;;;;;;5018698;28;20796;-85
2023/04/18 09:42:46;;;;;;;9.57;6.63;;;10.70;99.90;;;;;;5025195;28;20195;-86
2023/04/18 09:45:36;;;;;;;9.37;6.63;;;10.80;99.90;;;;;;5022115;28;20307;-84
2023/04/18 09:48:06;;;;;;;8.53;6.40;;;10.80;99.90;;;;;;4993357;28;20219;-84
2023/04/18 09:50:34;;;;;;;10.30;6.53;;;10.70;99.90;;;;;;5007187;28;20223;-86
2023/04/18 09:53:01;;;;;;;10.07;6.93;;;10.60;99.90;;;;;;5007227;28;20204;-87
2023/04/18 09:55:31;;;;;;;10.30;6.40;;;10.60;99.90;;;;;;5038366;28;20199;-84
2023/04/18 09:58:00;;;;;;;12.30;6.80;;;10.60;99.90;;;;;;5011514;28;20221;-88
2023/04/18 10:00:30;;;;;;;12.53;8.23;;;10.70;99.90;;;;;;5014382;28;20195;-84
2023/04/18 10:02:59;;;;;;;10.57;6.80;;;10.80;99.90;;;;;;4990728;28;20866;-87
2023/04/18 10:05:30;;;;;;;9.20;7.10;;;10.80;99.90;;;;;;5001759;28;20212;-86
2023/04/18 10:07:59;;;;;;;8.57;6.97;;;10.80;99.90;;;;;;5018450;28;20635;-86
2023/04/18 10:10:26;;;;;;;8.10;7.13;;;10.80;99.90;;;;;;4999349;28;20228;-87
2023/04/18 10:12:57;;;;;;;11.63;7.67;;;10.70;99.90;;;;;;5025334;28;20204;-89
2023/04/18 10:15:26;;;;;;;10.73;7.57;;;10.60;99.90;;;;;;5002197;28;20548;-85
2023/04/18 10:17:54;;;;;;;11.50;7.67;;;10.50;99.90;;;;;;5040976;28;20278;-89
2023/04/18 10:20:23;;;;;;;14.97;7.67;;;10.40;99.90;;;;;;5024870;28;20479;-86
2023/04/18 10:23:34;;;;;;;10.10;7.20;;;10.30;99.90;;;;;;5011456;28;20243;-84
2023/04/18 10:26:02;;;;;;;10.23;7.17;;;10.30;99.90;;;;;;5026734;28;20203;-88
2023/04/18 10:28:50;;;;;;;11.00;6.70;;;10.30;99.90;;;;;;5015154;28;20220;-86
2023/04/18 10:31:20;;;;;;;10.27;7.70;;;10.30;99.90;;;;;;5008656;28;20484;-85
2023/04/18 10:33:48;;;;;;;9.30;7.17;;;10.30;99.90;;;;;;5020718;28;20192;-90
2023/04/18 10:36:17;;;;;;;11.10;7.27;;;10.20;99.90;;;;;;4995923;28;20430;-86
2023/04/18 10:38:49;;;;;;;11.27;7.27;;;10.20;99.90;;;;;;5022530;28;20251;-85
2023/04/18 10:41:19;;;;;;;8.20;6.70;;;10.10;99.90;;;;;;5009081;28;20895;-85
2023/04/18 10:44:21;;;;;;;9.27;6.63;;;10.10;99.90;;;;;;5007985;28;20254;-89
2023/04/18 10:47:19;;;;;;;10.33;7.20;;;10.10;99.90;;;;;;5004392;28;20294;-89
2023/04/18 10:50:02;;;;;;;10.43;7.63;;;10.00;99.90;;;;;;5017020;28;20266;-90
2023/04/18 10:52:32;;;;;;;9.77;7.37;;;9.90;99.90;;;;;;5023470;28;20717;-86
2023/04/18 10:55:18;;;;;;;10.67;7.80;;;10.00;99.90;;;;;;5019531;28;20305;-90
2023/04/18 10:57:47;;;;;;;10.90;7.80;;;10.30;99.90;;;;;;5020645;28;20319;-86
2023/04/18 11:00:16;;;;;;;14.57;8.10;;;10.40;99.90;;;;;;4994547;28;20375;-86
2023/04/18 11:02:54;;;;;;;11.03;8.13;;;10.40;99.90;;;;;;5024841;28;20218;-85
2023/04/18 11:05:24;;;;;;;7.67;6.93;;;10.60;99.90;;;;;;5000712;28;21097;-85
2023/04/18 11:07:52;;;;;;;12.27;7.20;;;10.70;99.90;;;;;;5009460;28;20331;-89
2023/04/18 11:10:22;;;;;;;10.53;7.40;;;10.80;99.90;;;;;;5032587;28;20220;-86
2023/04/18 11:12:50;;;;;;;13.87;7.23;;;11.00;99.90;;;;;;5029406;28;20278;-89
2023/04/18 11:15:21;;;;;;;7.93;6.97;;;11.00;99.90;;;;;;4994341;28;20244;-85
2023/04/18 11:18:00;;;;;;;6.93;6.17;;;11.00;99.90;;;;;;5014778;28;20221;-88
2023/04/18 11:20:28;;;;;;;8.97;7.10;;;11.00;99.90;;;;;;5012729;28;20199;-85
2023/04/18 11:22:57;;;;;;;9.97;6.70;;;11.10;99.90;;;;;;5039582;28;20299;-88
2023/04/18 11:25:26;;;;;;;6.87;6.07;;;11.10;99.90;;;;;;5036773;28;20490;-85
2023/04/18 11:28:19;;;;;;;9.43;6.77;;;11.20;99.90;;;;;;5022578;28;20241;-85
2023/04/18 11:30:49;;;;;;;6.60;5.90;;;11.40;99.90;;;;;;5003405;28;20230;-89
2023/04/18 11:33:16;;;;;;;5.60;5.00;;;11.50;99.90;;;;;;5021639;28;20188;-84
2023/04/18 11:35:46;;;;;;;4.87;4.37;;;11.50;99.90;;;;;;5029857;28;20640;-84
2023/04/18 11:38:15;;;;;;;8.37;5.03;;;11.60;99.90;;;;;;5012072;28;20923;-84
2023/04/18 11:40:48;;;;;;;7.40;5.63;;;11.70;99.90;;;;;;5026522;28;20191;-85
2023/04/18 11:43:20;;;;;;;8.03;5.23;;;11.70;99.90;;;;;;5011930;28;20195;-84
2023/04/18 11:46:10;;;;;;;5.73;4.63;;;11.80;99.90;;;;;;5015756;28;20231;-84
2023/04/18 11:48:38;;;;;;;6.00;5.33;;;11.90;99.90;;;;;;5010881;28;20231;-84
2023/04/18 11:51:06;;;;;;;7.87;5.37;;;11.80;99.90;;;;;;5015452;28;20214;-84
2023/04/18 11:53:55;;;;;;;8.03;5.30;;;11.80;99.90;;;;;;5002311;28;20219;-87
2023/04/18 11:56:47;;;;;;;6.63;4.97;;;11.80;99.90;;;;;;5005469;28;20321;-86
2023/04/18 11:59:15;;;;;;;4.93;4.43;;;11.90;99.90;;;;;;5013410;28;20227;-85
2023/04/18 12:01:43;;;;;;;5.47;4.80;;;12.00;99.90;;;;;;5008471;28;20203;-84
2023/04/18 12:04:11;;;;;;;10.37;5.07;;;12.00;99.90;;;;;;5021379;28;20279;-84
2023/04/18 12:07:00;;;;;;;5.50;4.90;;;12.10;99.90;;;;;;5027114;28;20239;-86
2023/04/18 12:09:28;;;;;;;6.57;5.10;;;12.10;99.90;;;;;;4988833;28;20585;-87
2023/04/18 12:12:01;;;;;;;4.93;4.10;;;12.30;99.90;;;;;;5004896;28;20224;-87
2023/04/18 12:14:36;;;;;;;5.80;4.47;;;12.30;99.90;;;;;;5028699;28;20250;-84
2023/04/18 12:17:04;;;;;;;6.90;4.80;;;12.30;99.90;;;;;;5002808;28;20208;-87
2023/04/18 12:19:31;;;;;;;6.20;4.93;;;12.30;99.90;;;;;;5001628;28;20236;-85
2023/04/18 12:22:03;;;;;;;5.37;4.60;;;12.20;99.90;;;;;;5025783;28;20204;-90
2023/04/18 12:24:46;;;;;;;6.47;5.37;;;12.00;99.90;;;;;;5014020;28;20236;-86
2023/04/18 12:27:14;;;;;;;4.40;4.00;;;11.90;99.90;;;;;;5008294;28;20198;-85
2023/04/18 12:29:42;;;;;;;7.63;4.47;;;11.90;99.90;;;;;;4996466;28;20220;-84
2023/04/18 12:32:17;;;;;;;4.10;3.70;;;12.00;99.90;;;;;;4996029;28;20404;-88
2023/04/18 12:34:50;;;;;;;5.60;4.00;;;12.10;99.90;;;;;;5010258;28;20209;-84
2023/04/18 12:37:24;;;;;;;7.07;4.17;;;12.20;99.90;;;;;;4998494;28;20200;-86
2023/04/18 12:40:06;;;;;;;7.37;4.37;;;12.30;99.90;;;;;;5030252;28;20763;-90
2023/04/18 12:42:37;;;;;;;6.40;4.03;;;12.40;99.90;;;;;;5044703;28;20199;-83
2023/04/18 12:45:06;;;;;;;7.63;3.80;;;12.40;99.90;;;;;;5023905;28;20209;-88
2023/04/18 12:47:35;;;;;;;4.83;3.77;;;12.40;99.90;;;;;;5023306;28;20729;-85
2023/04/18 12:50:02;;;;;;;4.00;3.37;;;12.20;99.90;;;;;;5036042;28;20191;-87
2023/04/18 12:52:30;;;;;;;4.13;3.60;;;12.20;99.90;;;;;;5042588;28;20690;-85
2023/04/18 12:54:57;;;;;;;5.17;4.37;;;12.30;99.90;;;;;;5026575;28;20248;-83
2023/04/18 12:57:24;;;;;;;4.03;3.73;;;12.40;99.90;;;;;;5011846;28;20199;-84
2023/04/18 12:59:51;;;;;;;4.10;3.80;;;12.60;99.90;;;;;;5014492;28;20196;-83